Terminal Aerodrome Forecast
Issued by NWS Binghamton, NY

Home | Current Version | Previous Version | Text Only | Print | Product List | Glossary On
Versions: 1 2 3 4 5 6 7 8 9 10 11 12 13 14 15 16 17 18
982
FTUS41 KBGM 121129
TAFAVP
TAF
KAVP 121129Z 1212/1312 21007KT P6SM SCT040
     FM121600 24008G15KT P6SM BKN100
     FM122200 22007KT P6SM SCT025 BKN060
     FM130600 29015G23KT P6SM -SHSN BKN035 PROB30 1306/1312 3/4SM
      -SHSN BLSN OVC012=

USA.gov is the U.S. government's official web portal to all federal, state and local government web resources and services.